Time;durP1;ratioP1;P1;durP2;ratioP2;P2;SDS_P1;SDS_P2;PMS_P1;PMS_P2;Temp;Humidity;BMP_temperature;BMP_pressure;BME280_temperature;BME280_humidity;BME280_pressure;Samples;Min_cycle;Max_cycle;Signal;HPM_P1;HPM_P2
2022/04/12 00:02:16;;;;;;;;;;;;;;;25.47;55.04;97398.78;626844;226;65440;-64
2022/04/12 00:04:44;;;;;;;;;;;;;;;25.46;54.59;97391.02;626904;226;67206;-64
2022/04/12 00:07:11;;;;;;;;;;;;;;;25.45;55.94;97392.09;626874;226;67033;-64
2022/04/12 00:09:39;;;;;;;;;;;;;;;25.44;55.70;97393.20;626872;226;63337;-64
2022/04/12 00:12:08;;;;;;;;;;;;;;;25.43;55.78;97394.30;626865;226;64851;-64
2022/04/12 00:14:35;;;;;;;;;;;;;;;25.43;56.10;97394.30;626863;226;64987;-64
2022/04/12 00:19:48;;;;;;;;;;;;;;;25.42;55.73;97392.68;626962;226;67270;-63
2022/04/12 00:22:16;;;;;;;;;;;;;;;25.41;55.88;97391.09;626936;226;66520;-64
2022/04/12 00:24:43;;;;;;;;;;;;;;;25.40;55.38;97390.30;626882;226;65459;-64
2022/04/12 00:27:11;;;;;;;;;;;;;;;25.39;55.26;97388.68;626861;226;66885;-64
2022/04/12 00:29:38;;;;;;;;;;;;;;;25.38;55.96;97379.02;626844;226;67434;-64
2022/04/12 00:32:06;;;;;;;;;;;;;;;25.38;56.74;97383.60;626944;226;62931;-64
2022/04/12 00:34:34;;;;;;;;;;;;;;;25.36;56.07;97385.78;626890;226;64675;-64
2022/04/12 00:37:01;;;;;;;;;;;;;;;25.37;56.79;97390.06;626870;226;66769;-64
2022/04/12 00:39:30;;;;;;;;;;;;;;;25.36;55.51;97388.47;626872;226;63056;-64
2022/04/12 00:41:58;;;;;;;;;;;;;;;25.35;56.86;97389.57;626866;226;66942;-64
2022/04/12 00:44:25;;;;;;;;;;;;;;;25.35;55.29;97387.67;626845;226;66921;-64
2022/04/12 00:46:53;;;;;;;;;;;;;;;25.33;56.60;97384.47;626952;226;65300;-64
2022/04/12 00:49:20;;;;;;;;;;;;;;;25.33;57.16;97387.16;626834;226;66838;-64
2022/04/12 00:51:48;;;;;;;;;;;;;;;25.32;54.81;97384.74;626859;226;66708;-64
2022/04/12 00:54:17;;;;;;;;;;;;;;;25.32;56.91;97374.80;626818;226;65297;-64
2022/04/12 00:56:44;;;;;;;;;;;;;;;25.31;55.35;97381.26;626892;226;67413;-64
2022/04/12 00:59:12;;;;;;;;;;;;;;;25.31;56.79;97380.46;626945;226;66980;-64
2022/04/12 01:01:39;;;;;;;;;;;;;;;25.29;56.86;97383.46;626913;226;65287;-64
2022/04/12 01:04:07;;;;;;;;;;;;;;;25.28;56.97;97379.16;626901;226;64713;-64
2022/04/12 01:06:34;;;;;;;;;;;;;;;25.28;57.05;97375.67;626909;226;66763;-64
2022/04/12 01:09:04;;;;;;;;;;;;;;;25.29;57.11;97372.70;626871;226;63175;-64
2022/04/12 01:11:31;;;;;;;;;;;;;;;25.27;55.34;97377.56;626929;226;64912;-64
2022/04/12 01:13:58;;;;;;;;;;;;;;;25.27;56.83;97377.56;626893;226;66956;-64
2022/04/12 01:16:26;;;;;;;;;;;;;;;25.27;57.01;97371.39;626911;226;63165;-65
2022/04/12 01:18:54;;;;;;;;;;;;;;;25.25;56.53;97379.73;626881;226;65058;-65
2022/04/12 01:21:21;;;;;;;;;;;;;;;25.24;55.36;97378.94;626885;226;64815;-65
2022/04/12 01:23:57;;;;;;;;;;;;;;;25.22;56.40;97378.42;626966;226;65273;-65
2022/04/12 01:26:24;;;;;;;;;;;;;;;25.23;56.79;97385.39;626976;226;65010;-65
2022/04/12 01:28:52;;;;;;;;;;;;;;;25.23;56.83;97381.91;626905;226;64842;-64
2022/04/12 01:31:19;;;;;;;;;;;;;;;25.22;57.23;97383.80;626896;226;65280;-64
2022/04/12 01:33:47;;;;;;;;;;;;;;;25.21;58.00;97381.42;626851;226;67203;-64
2022/04/12 01:36:14;;;;;;;;;;;;;;;25.19;56.83;97383.59;626928;226;66704;-64
2022/04/12 01:38:42;;;;;;;;;;;;;;;25.19;58.04;97375.52;626918;226;63271;-64
2022/04/12 01:41:09;;;;;;;;;;;;;;;25.19;58.02;97379.01;626881;226;64779;-64
2022/04/12 01:43:37;;;;;;;;;;;;;;;25.18;57.76;97372.03;626883;226;65365;-64
2022/04/12 01:46:04;;;;;;;;;;;;;;;25.17;58.96;97373.11;626894;226;63188;-64
2022/04/12 01:48:32;;;;;;;;;;;;;;;25.17;57.51;97372.31;626848;226;64950;-64
2022/04/12 01:50:59;;;;;;;;;;;;;;;25.16;57.70;97370.73;626919;226;64916;-64
2022/04/12 01:53:26;;;;;;;;;;;;;;;25.15;56.87;97375.28;626891;226;64045;-64
2022/04/12 01:55:54;;;;;;;;;;;;;;;25.15;57.12;97369.11;626880;226;67131;-64
2022/04/12 01:58:21;;;;;;;;;;;;;;;25.14;57.47;97370.97;626903;226;66958;-64
2022/04/12 02:00:49;;;;;;;;;;;;;;;25.13;58.12;97372.07;626898;226;65294;-64
2022/04/12 02:03:16;;;;;;;;;;;;;;;25.12;57.75;97381.20;626919;226;66856;-64
2022/04/12 02:05:44;;;;;;;;;;;;;;;25.12;58.82;97381.20;626906;226;67046;-64
2022/04/12 02:08:11;;;;;;;;;;;;;;;25.12;58.31;97377.73;626852;226;65300;-64
2022/04/12 02:10:39;;;;;;;;;;;;;;;25.11;57.42;97374.24;626891;226;67542;-64
2022/04/12 02:13:06;;;;;;;;;;;;;;;25.11;57.11;97379.63;626866;226;66970;-63
2022/04/12 02:15:34;;;;;;;;;;;;;;;25.10;57.18;97379.89;626912;226;65278;-63
2022/04/12 02:18:01;;;;;;;;;;;;;;;25.09;57.99;97378.30;626880;226;64820;-63
2022/04/12 02:20:29;;;;;;;;;;;;;;;25.09;57.65;97379.10;626904;226;65165;-64
2022/04/12 02:22:56;;;;;;;;;;;;;;;25.09;57.62;97381.00;626890;226;63297;-64
2022/04/12 02:25:24;;;;;;;;;;;;;;;25.09;57.45;97386.37;626896;226;67323;-64
2022/04/12 02:27:51;;;;;;;;;;;;;;;25.07;58.07;97378.58;626878;226;66861;-64
2022/04/12 02:30:19;;;;;;;;;;;;;;;25.07;57.97;97375.09;626926;226;65257;-64
2022/04/12 02:32:46;;;;;;;;;;;;;;;25.06;57.55;97370.82;626843;226;67122;-64
2022/04/12 02:35:14;;;;;;;;;;;;;;;25.06;57.67;97382.38;626917;226;67169;-64
2022/04/12 02:37:41;;;;;;;;;;;;;;;25.03;57.71;97372.98;626880;226;65377;-64
2022/04/12 02:40:09;;;;;;;;;;;;;;;25.05;58.52;97379.98;626573;226;67251;-64
2022/04/12 02:42:37;;;;;;;;;;;;;;;25.03;57.79;97380.27;624642;227;67959;-64
2022/04/12 02:45:04;;;;;;;;;;;;;;;25.02;58.55;97382.16;624610;227;65358;-64
2022/04/12 02:47:32;;;;;;;;;;;;;;;25.02;58.51;97381.36;624574;227;66924;-63
2022/04/12 02:49:59;;;;;;;;;;;;;;;25.01;57.10;97382.43;624643;227;66729;-63
2022/04/12 02:52:27;;;;;;;;;;;;;;;25.01;58.16;97383.22;624592;227;63272;-63
2022/04/12 02:54:54;;;;;;;;;;;;;;;24.98;57.66;97377.63;624677;227;64850;-63
2022/04/12 02:57:22;;;;;;;;;;;;;;;24.98;58.54;97375.73;624570;227;68111;-64
2022/04/12 02:59:49;;;;;;;;;;;;;;;24.99;58.43;97373.84;624598;227;65130;-64
2022/04/12 03:02:17;;;;;;;;;;;;;;;24.97;58.16;97363.39;624612;227;67199;-64
2022/04/12 03:04:44;;;;;;;;;;;;;;;24.98;57.72;97380.32;624607;227;64841;-63
2022/04/12 03:07:12;;;;;;;;;;;;;;;24.96;57.90;97383.31;624653;227;63352;-63
2022/04/12 03:09:40;;;;;;;;;;;;;;;24.97;58.57;97381.42;624579;227;64808;-63
2022/04/12 03:12:08;;;;;;;;;;;;;;;24.95;58.55;97386.28;624606;227;67697;-63
2022/04/12 03:14:36;;;;;;;;;;;;;;;24.95;57.49;97389.77;624616;227;65619;-63
2022/04/12 03:17:03;;;;;;;;;;;;;;;24.94;58.75;97385.48;624616;227;66925;-63
2022/04/12 03:19:31;;;;;;;;;;;;;;;24.95;58.71;97388.97;624647;227;66989;-63
2022/04/12 03:21:58;;;;;;;;;;;;;;;24.93;58.57;97389.24;624577;227;65338;-63
2022/04/12 03:24:26;;;;;;;;;;;;;;;24.92;58.39;97394.92;624606;227;67448;-63
2022/04/12 03:26:53;;;;;;;;;;;;;;;24.92;58.73;97392.23;624600;227;67045;-63
2022/04/12 03:29:22;;;;;;;;;;;;;;;24.91;58.74;97394.13;624598;227;65100;-63
2022/04/12 03:31:50;;;;;;;;;;;;;;;24.89;58.43;97390.12;624586;227;67012;-63
2022/04/12 03:34:18;;;;;;;;;;;;;;;24.87;58.17;97385.02;624646;227;67200;-63
2022/04/12 03:36:46;;;;;;;;;;;;;;;24.88;59.18;97386.64;624574;227;65310;-63
2022/04/12 03:39:21;;;;;;;;;;;;;;;24.86;58.44;97391.50;624612;227;64988;-63
2022/04/12 03:41:49;;;;;;;;;;;;;;;24.86;58.60;97391.50;624530;226;64903;-63
2022/04/12 03:44:17;;;;;;;;;;;;;;;24.86;58.28;97393.39;624612;227;65303;-64
2022/04/12 03:46:44;;;;;;;;;;;;;;;24.86;58.77;97388.02;624631;227;67183;-65
2022/04/12 03:49:12;;;;;;;;;;;;;;;24.84;58.75;97384.80;624555;227;67037;-65
2022/04/12 03:51:39;;;;;;;;;;;;;;;24.84;58.40;97388.29;624603;227;65008;-65
2022/04/12 03:54:07;;;;;;;;;;;;;;;24.83;57.86;97393.94;624590;227;67292;-65
2022/04/12 03:56:37;;;;;;;;;;;;;;;24.82;58.69;97393.14;624573;227;67590;-65
2022/04/12 03:59:05;;;;;;;;;;;;;;;24.83;58.08;97393.94;624583;227;65224;-65
2022/04/12 04:01:32;;;;;;;;;;;;;;;24.84;58.73;97395.56;624599;227;67181;-65
2022/04/12 04:04:00;;;;;;;;;;;;;;;24.81;58.10;97395.03;624581;227;67593;-65
2022/04/12 04:06:27;;;;;;;;;;;;;;;24.81;57.58;97397.72;624629;227;65345;-65
2022/04/12 04:08:55;;;;;;;;;;;;;;;24.81;59.16;97402.30;624667;227;67204;-65
2022/04/12 04:11:22;;;;;;;;;;;;;;;24.80;58.40;97409.58;624564;227;67394;-65
2022/04/12 04:13:49;;;;;;;;;;;;;;;24.80;58.77;97406.09;624576;227;65323;-65
2022/04/12 04:16:17;;;;;;;;;;;;;;;24.79;57.83;97410.64;624592;227;67199;-65
2022/04/12 04:18:44;;;;;;;;;;;;;;;24.79;60.18;97412.53;624572;227;64857;-65
2022/04/12 04:21:12;;;;;;;;;;;;;;;24.78;58.38;97408.26;624640;227;63262;-65
2022/04/12 04:23:39;;;;;;;;;;;;;;;24.77;58.50;97406.64;624645;227;65101;-65
2022/04/12 04:26:07;;;;;;;;;;;;;;;24.75;58.19;97414.20;624624;227;66817;-65
2022/04/12 04:28:35;;;;;;;;;;;;;;;24.75;58.35;97415.00;624564;227;63264;-65
2022/04/12 04:31:02;;;;;;;;;;;;;;;24.76;58.80;97413.11;624596;225;64409;-65
2022/04/12 04:33:30;;;;;;;;;;;;;;;24.75;60.64;97409.63;624644;227;66752;-65
2022/04/12 04:35:57;;;;;;;;;;;;;;;24.74;58.05;97412.59;624629;227;65247;-65
2022/04/12 04:38:25;;;;;;;;;;;;;;;24.75;59.06;97414.20;624623;227;67287;-65
2022/04/12 04:40:52;;;;;;;;;;;;;;;24.73;59.04;97411.80;625578;226;66903;-65
2022/04/12 04:43:20;;;;;;;;;;;;;;;24.73;58.99;97414.48;626898;226;65163;-65
2022/04/12 04:45:47;;;;;;;;;;;;;;;24.74;57.89;97417.96;626899;226;66733;-65
2022/04/12 04:48:15;;;;;;;;;;;;;;;24.74;58.08;97418.75;626974;226;66804;-65
2022/04/12 04:50:42;;;;;;;;;;;;;;;24.73;58.39;97413.69;626901;226;65129;-65
2022/04/12 04:53:10;;;;;;;;;;;;;;;24.75;58.32;97414.20;626903;226;67300;-65
2022/04/12 04:55:42;;;;;;;;;;;;;;;24.74;60.67;97412.59;626904;226;64899;-65
2022/04/12 04:58:07;;;;;;;;;;;;;;;24.74;59.43;97412.59;626792;225;63881;-65
2022/04/12 05:00:35;;;;;;;;;;;;;;;24.74;57.89;97417.96;626872;226;67118;-65
2022/04/12 05:03:03;;;;;;;;;;;;;;;24.75;58.37;97419.58;626899;226;66919;-65
2022/04/12 05:05:31;;;;;;;;;;;;;;;24.74;59.17;97420.65;626845;226;63307;-65
2022/04/12 05:07:59;;;;;;;;;;;;;;;24.74;58.38;97421.45;626711;226;65035;-65
2022/04/12 05:10:32;;;;;;;;;;;;;;;24.73;58.41;97422.54;626851;226;65027;-65
2022/04/12 05:13:01;;;;;;;;;;;;;;;24.74;57.08;97424.13;626863;226;65343;-66
2022/04/12 05:15:28;;;;;;;;;;;;;;;24.75;58.31;97423.06;626680;226;67064;-66
2022/04/12 05:17:56;;;;;;;;;;;;;;;24.76;58.32;97426.55;626897;226;64435;-66
2022/04/12 05:20:25;;;;;;;;;;;;;;;24.76;57.97;97429.23;626879;226;65303;-66
2022/04/12 05:22:53;;;;;;;;;;;;;;;24.75;58.06;97424.95;626801;226;64746;-66
2022/04/12 05:25:21;;;;;;;;;;;;;;;24.77;58.57;97428.97;626832;226;65147;-66
2022/04/12 05:27:49;;;;;;;;;;;;;;;24.79;58.24;97436.72;626649;226;63233;-64
2022/04/12 05:30:17;;;;;;;;;;;;;;;24.80;59.49;97427.59;626858;226;67254;-66
2022/04/12 05:32:45;;;;;;;;;;;;;;;24.78;58.25;97424.38;626895;226;67111;-64
2022/04/12 05:35:13;;;;;;;;;;;;;;;24.80;58.59;97427.59;626866;226;65521;-64
2022/04/12 05:37:41;;;;;;;;;;;;;;;24.80;59.15;97427.59;626834;226;67191;-66
2022/04/12 05:40:10;;;;;;;;;;;;;;;24.81;58.42;97431.87;626871;226;65623;-65
2022/04/12 05:42:38;;;;;;;;;;;;;;;24.81;58.76;97431.87;626898;226;63237;-65
2022/04/12 05:45:07;;;;;;;;;;;;;;;24.81;58.41;97429.98;626848;226;64791;-64
2022/04/12 05:47:49;;;;;;;;;;;;;;;24.83;58.82;97426.19;626877;226;65033;-66
2022/04/12 05:50:24;;;;;;;;;;;;;;;24.83;57.98;97432.39;626791;226;65280;-66
2022/04/12 05:52:52;;;;;;;;;;;;;;;24.84;59.16;97425.92;626875;226;67482;-67
2022/04/12 05:55:21;;;;;;;;;;;;;;;24.85;58.02;97424.83;622007;226;70332;-66
2022/04/12 05:57:50;;;;;;;;;;;;;;;24.84;57.19;97422.44;626623;226;65315;-65
2022/04/12 06:00:18;;;;;;;;;;;;;;;24.84;59.43;97427.81;626259;226;67246;-66
2022/04/12 06:02:49;;;;;;;;;;;;;;;24.83;59.22;97427.02;619530;229;66953;-66
2022/04/12 06:05:18;;;;;;;;;;;;;;;24.79;57.95;97434.83;619614;229;63259;-66
2022/04/12 06:07:45;;;;;;;;;;;;;;;24.80;57.84;97435.66;619723;229;67267;-66
2022/04/12 06:10:13;;;;;;;;;;;;;;;24.81;57.37;97439.94;619647;229;67028;-66
2022/04/12 06:12:41;;;;;;;;;;;;;;;24.82;57.89;97430.77;619695;229;65268;-71
2022/04/12 06:15:09;;;;;;;;;;;;;;;24.83;51.42;97432.39;619504;229;67350;-72
2022/04/12 06:17:37;;;;;;;;;;;;;;;24.85;56.24;97432.89;619533;229;67007;-67
2022/04/12 06:20:06;;;;;;;;;;;;;;;24.83;55.44;97436.95;619647;229;65216;-69
2022/04/12 06:22:34;;;;;;;;;;;;;;;24.80;55.43;97433.77;619615;229;67381;-69
2022/04/12 06:25:01;;;;;;;;;;;;;;;24.82;56.52;97430.77;619615;229;66684;-70
2022/04/12 06:27:34;;;;;;;;;;;;;;;24.83;56.31;97435.08;619640;229;65161;-68
2022/04/12 06:30:09;;;;;;;;;;;;;;;24.83;57.13;97435.08;619547;228;65742;-69
2022/04/12 06:32:37;;;;;;;;;;;;;;;24.83;56.97;97428.88;619680;229;66745;-69
2022/04/12 06:35:05;;;;;;;;;;;;;;;24.84;56.82;97425.92;619707;229;63352;-69
2022/04/12 06:37:33;;;;;;;;;;;;;;;24.86;56.86;97428.34;615735;229;67306;-70
2022/04/12 06:40:01;;;;;;;;;;;;;;;24.86;55.58;97434.51;619418;229;67511;-69
2022/04/12 06:42:29;;;;;;;;;;;;;;;24.89;57.02;97425.87;617131;227;64073;-67
2022/04/12 06:44:56;;;;;;;;;;;;;;;24.89;57.59;97428.55;616776;230;67291;-68
2022/04/12 06:47:26;;;;;;;;;;;;;;;24.90;57.14;97427.45;617506;230;46692;-69
2022/04/12 06:49:53;;;;;;;;;;;;;;;24.92;56.93;97430.67;617429;230;63220;-69
2022/04/12 06:52:21;;;;;;;;;;;;;;;24.92;57.67;97417.23;617387;230;65079;-69
2022/04/12 06:54:49;;;;;;;;;;;;;;;24.91;57.96;97429.08;617375;227;64923;-69
2022/04/12 06:57:17;;;;;;;;;;;;;;;24.91;56.86;97437.14;617448;230;63221;-69
2022/04/12 06:59:45;;;;;;;;;;;;;;;24.93;57.87;97429.56;617406;230;66935;-69
2022/04/12 07:02:13;;;;;;;;;;;;;;;24.95;57.59;97432.78;617506;230;67081;-69
2022/04/12 07:04:40;;;;;;;;;;;;;;;24.95;57.01;97430.09;617442;230;65444;-69
2022/04/12 07:07:09;;;;;;;;;;;;;;;24.95;58.18;97430.09;617152;230;47353;-69
2022/04/12 07:09:37;;;;;;;;;;;;;;;24.96;56.89;97444.33;617468;230;67053;-69
2022/04/12 07:12:05;;;;;;;;;;;;;;;24.98;57.68;97436.78;617468;230;65121;-69
2022/04/12 07:14:33;;;;;;;;;;;;;;;24.98;58.14;97440.27;617473;230;67074;-69
2022/04/12 07:17:00;;;;;;;;;;;;;;;25.00;58.67;97437.31;617431;230;64925;-68
2022/04/12 07:19:28;;;;;;;;;;;;;;;25.00;58.01;97434.63;617442;230;62944;-68
2022/04/12 07:21:55;;;;;;;;;;;;;;;25.00;57.17;97435.41;617423;230;67005;-68
2022/04/12 07:24:23;;;;;;;;;;;;;;;25.03;57.25;97431.35;617481;227;66941;-69
2022/04/12 07:26:50;;;;;;;;;;;;;;;25.04;57.72;97449.08;617518;230;65285;-69
2022/04/12 07:29:18;;;;;;;;;;;;;;;25.03;58.10;97439.42;617402;230;67095;-68
2022/04/12 07:31:45;;;;;;;;;;;;;;;25.05;58.02;97439.14;617351;230;67000;-66
2022/04/12 07:34:13;;;;;;;;;;;;;;;25.05;57.80;97437.25;617366;230;65330;-67
2022/04/12 07:36:47;;;;;;;;;;;;;;;25.07;56.95;97442.33;617431;230;64945;-67
2022/04/12 07:39:10;;;;;;;;;;;;;;;25.08;57.53;97446.63;617222;229;64965;-67
2022/04/12 07:41:37;;;;;;;;;;;;;;;25.09;57.33;97445.53;617441;229;63155;-67
2022/04/12 07:44:05;;;;;;;;;;;;;;;25.08;57.14;97438.56;617471;230;64892;-70
2022/04/12 07:46:35;;;;;;;;;;;;;;;25.11;57.65;97456.81;617468;230;66605;-68
2022/04/12 07:49:02;;;;;;;;;;;;;;;25.10;52.57;97444.44;617332;230;65213;-68
2022/04/12 07:51:29;;;;;;;;;;;;;;;25.13;52.05;97438.52;617411;229;67313;-68
2022/04/12 07:53:57;;;;;;;;;;;;;;;25.14;52.65;97432.83;617420;227;67233;-66
2022/04/12 07:56:25;;;;;;;;;;;;;;;25.15;55.16;97441.72;617307;227;65293;-72
2022/04/12 07:58:52;;;;;;;;;;;;;;;25.13;55.16;97439.30;617450;230;67242;-67
2022/04/12 08:01:20;;;;;;;;;;;;;;;25.13;55.41;97436.61;617387;230;66990;-68
2022/04/12 08:03:48;;;;;;;;;;;;;;;25.15;56.11;97439.03;617403;230;65355;-68
2022/04/12 08:06:15;;;;;;;;;;;;;;;25.16;55.37;97440.66;617502;230;67075;-69
2022/04/12 08:08:44;;;;;;;;;;;;;;;25.15;56.64;97434.45;617409;230;66817;-70
2022/04/12 08:11:12;;;;;;;;;;;;;;;25.16;56.40;97435.27;617348;230;65327;-67
2022/04/12 08:13:40;;;;;;;;;;;;;;;25.16;57.39;97435.27;617392;230;66751;-69
2022/04/12 08:16:09;;;;;;;;;;;;;;;25.17;56.15;97423.41;617398;227;67668;-67
2022/04/12 08:18:36;;;;;;;;;;;;;;;25.18;56.63;97430.38;617298;230;65415;-69
2022/04/12 08:21:04;;;;;;;;;;;;;;;25.17;56.57;97426.90;617429;230;67457;-69
2022/04/12 08:23:31;;;;;;;;;;;;;;;25.18;56.37;97433.90;612409;230;66996;-68
2022/04/12 08:25:59;;;;;;;;;;;;;;;25.19;56.27;97434.69;617343;230;65543;-69
2022/04/12 08:28:28;;;;;;;;;;;;;;;25.19;56.43;97423.94;617212;227;65005;-72
2022/04/12 08:30:56;;;;;;;;;;;;;;;25.18;54.02;97433.90;617140;229;67212;-67
2022/04/12 08:33:25;;;;;;;;;;;;;;;25.18;53.73;97433.07;617365;230;64218;-68
2022/04/12 08:35:52;;;;;;;;;;;;;;;25.18;56.76;97428.52;617461;230;67635;-70
2022/04/12 08:38:20;;;;;;;;;;;;;;;25.16;57.31;97441.45;617246;230;64562;-70
2022/04/12 08:40:48;;;;;;;;;;;;;;;25.16;57.67;97436.06;616265;229;65156;-72
2022/04/12 08:43:16;;;;;;;;;;;;;;;25.16;57.50;97436.06;614617;231;66753;-72
2022/04/12 08:45:45;;;;;;;;;;;;;;;25.17;56.42;97436.86;614736;231;66720;-73
2022/04/12 08:48:13;;;;;;;;;;;;;;;25.17;56.83;97436.86;614675;231;65464;-68
2022/04/12 08:50:41;;;;;;;;;;;;;;;25.16;57.42;97432.58;613807;231;65887;-69
2022/04/12 08:53:09;;;;;;;;;;;;;;;25.16;57.49;97432.58;607735;231;65884;-69
2022/04/12 08:55:38;;;;;;;;;;;;;;;25.16;56.62;97427.20;607842;228;63346;-69
2022/04/12 08:58:06;;;;;;;;;;;;;;;25.15;57.21;97422.89;608102;231;66042;-68
2022/04/12 09:00:35;;;;;;;;;;;;;;;25.17;57.12;97420.73;614663;231;66758;-69
2022/04/12 09:03:04;;;;;;;;;;;;;;;25.16;57.46;97428.00;614507;228;63232;-69
2022/04/12 09:05:35;;;;;;;;;;;;;;;25.17;57.27;97415.34;614597;231;68242;-70
2022/04/12 09:08:02;;;;;;;;;;;;;;;25.17;57.52;97418.03;614587;231;67389;-70
2022/04/12 09:10:34;;;;;;;;;;;;;;;25.17;57.88;97409.97;614662;231;63115;-70
2022/04/12 09:13:12;;;;;;;;;;;;;;;25.16;57.42;97408.38;614727;231;68242;-69
2022/04/12 09:15:43;;;;;;;;;;;;;;;25.17;58.65;97410.77;614631;231;66984;-69
2022/04/12 09:18:11;;;;;;;;;;;;;;;25.17;57.90;97409.97;614687;231;65389;-69
2022/04/12 09:20:38;;;;;;;;;;;;;;;25.16;57.67;97403.80;614697;231;67213;-69
2022/04/12 09:23:07;;;;;;;;;;;;;;;25.17;57.66;97400.00;614689;231;66986;-68
2022/04/12 09:25:36;;;;;;;;;;;;;;;25.18;57.52;97401.63;614426;231;66798;-69
2022/04/12 09:28:04;;;;;;;;;;;;;;;25.18;58.40;97403.48;614729;231;66742;-68
2022/04/12 09:30:31;;;;;;;;;;;;;;;25.18;58.02;97395.42;614706;231;67071;-68
2022/04/12 09:32:59;;;;;;;;;;;;;;;25.17;57.83;97393.83;614673;231;65296;-69
2022/04/12 09:35:26;;;;;;;;;;;;;;;25.17;57.89;97393.83;614669;231;67352;-69
2022/04/12 09:37:54;;;;;;;;;;;;;;;25.17;57.50;97389.24;614583;231;67183;-69
2022/04/12 09:40:21;;;;;;;;;;;;;;;25.17;57.58;97389.24;614711;229;65140;-68
2022/04/12 09:42:50;;;;;;;;;;;;;;;25.17;57.94;97381.17;614701;231;67757;-69
2022/04/12 09:45:24;;;;;;;;;;;;;;;25.18;57.84;97390.04;614687;231;64473;-69
2022/04/12 09:47:53;;;;;;;;;;;;;;;25.17;56.88;97377.69;614612;231;63262;-69
2022/04/12 09:50:21;;;;;;;;;;;;;;;25.18;57.09;97373.91;614713;231;67253;-68
2022/04/12 09:52:58;;;;;;;;;;;;;;;25.16;57.26;97360.76;614772;231;64667;-68
2022/04/12 09:55:40;;;;;;;;;;;;;;;25.16;57.03;97368.03;614697;231;65243;-71
2022/04/12 09:58:09;;;;;;;;;;;;;;;25.15;57.82;97364.52;614523;231;65150;-68
2022/04/12 10:00:43;;;;;;;;;;;;;;;25.15;57.46;97371.80;614746;231;67133;-67
2022/04/12 10:03:08;;;;;;;;;;;;;;;25.14;57.36;97360.21;614540;231;65366;-68
2022/04/12 10:05:36;;;;;;;;;;;;;;;25.14;57.57;97362.11;614672;231;67165;-68
2022/04/12 10:08:05;;;;;;;;;;;;;;;25.14;57.37;97356.73;614718;231;65051;-68
2022/04/12 10:10:33;;;;;;;;;;;;;;;25.14;56.71;97354.04;614671;231;65419;-67
2022/04/12 10:13:00;;;;;;;;;;;;;;;25.14;57.62;97343.28;614655;231;64712;-68
2022/04/12 10:15:29;;;;;;;;;;;;;;;25.14;56.55;97346.77;614719;231;66749;-68
2022/04/12 10:17:57;;;;;;;;;;;;;;;25.14;57.40;97344.08;614694;231;62762;-68
2022/04/12 10:20:24;;;;;;;;;;;;;;;25.15;57.58;97336.83;614709;231;65091;-67
2022/04/12 10:22:52;;;;;;;;;;;;;;;25.14;57.35;97341.39;614585;231;65200;-67
2022/04/12 10:25:24;;;;;;;;;;;;;;;25.14;57.65;97337.91;614651;231;63862;-68
2022/04/12 10:27:53;;;;;;;;;;;;;;;25.14;56.03;97329.84;614684;231;64892;-67
2022/04/12 10:30:21;;;;;;;;;;;;;;;25.15;57.80;97328.77;614455;231;64926;-67
2022/04/12 10:32:59;;;;;;;;;;;;;;;25.14;57.13;97329.84;614719;231;65145;-67
2022/04/12 10:35:28;;;;;;;;;;;;;;;25.14;57.70;97329.84;614632;231;67169;-72
2022/04/12 10:38:00;;;;;;;;;;;;;;;25.14;56.94;97337.91;614737;231;65680;-67
2022/04/12 10:40:27;;;;;;;;;;;;;;;25.15;57.42;97323.39;614659;229;65300;-67
2022/04/12 10:42:55;;;;;;;;;;;;;;;25.13;57.47;97314.80;614729;231;66914;-68
2022/04/12 10:45:33;;;;;;;;;;;;;;;25.13;57.26;97320.18;614742;231;66963;-68
2022/04/12 10:48:01;;;;;;;;;;;;;;;25.13;56.53;97323.66;614652;231;62973;-68
2022/04/12 10:50:31;;;;;;;;;;;;;;;25.14;57.66;97321.77;614700;231;67368;-67
2022/04/12 10:52:59;;;;;;;;;;;;;;;25.14;57.56;97301.05;614291;228;65015;-67
2022/04/12 10:55:26;;;;;;;;;;;;;;;25.15;56.87;97304.56;614555;231;63233;-68
2022/04/12 10:57:55;;;;;;;;;;;;;;;25.15;56.78;97304.56;614688;231;64871;-68
2022/04/12 11:00:24;;;;;;;;;;;;;;;25.16;57.55;97314.25;613967;231;67061;-68
2022/04/12 11:02:55;;;;;;;;;;;;;;;25.16;56.38;97306.18;614621;231;65423;-67
2022/04/12 11:05:39;;;;;;;;;;;;;;;25.15;57.15;97321.49;614662;231;67252;-68
2022/04/12 11:08:18;;;;;;;;;;;;;;;25.16;57.79;97314.25;614578;231;66973;-68
2022/04/12 11:10:54;;;;;;;;;;;;;;;25.15;56.81;97305.35;614640;231;63222;-67
2022/04/12 11:13:22;;;;;;;;;;;;;;;25.17;57.67;97302.39;614657;231;67264;-67
2022/04/12 11:15:57;;;;;;;;;;;;;;;25.16;57.76;97290.84;614721;231;67074;-67
2022/04/12 11:18:24;;;;;;;;;;;;;;;25.15;57.78;97286.53;614741;231;65298;-70
2022/04/12 11:21:02;;;;;;;;;;;;;;;25.15;57.69;97291.91;614710;229;67132;-69
2022/04/12 11:23:46;;;;;;;;;;;;;;;25.16;57.18;97279.28;614593;231;66929;-70
2022/04/12 11:26:27;;;;;;;;;;;;;;;25.16;57.53;97281.97;614462;231;65418;-68
2022/04/12 11:29:00;;;;;;;;;;;;;;;25.17;56.42;97270.11;614715;231;67344;-67
2022/04/12 11:31:25;;;;;;;;;;;;;;;25.18;56.52;97269.84;614423;231;66773;-66
2022/04/12 11:33:52;;;;;;;;;;;;;;;25.21;57.01;97268.45;614699;231;63375;-67
2022/04/12 11:36:20;;;;;;;;;;;;;;;25.21;56.76;97271.14;614641;228;64976;-67
2022/04/12 11:38:50;;;;;;;;;;;;;;;25.22;57.40;97272.73;614589;231;65392;-67
2022/04/12 11:41:18;;;;;;;;;;;;;;;25.22;56.82;97262.77;616223;227;65547;-67
2022/04/12 11:43:45;;;;;;;;;;;;;;;25.24;56.81;97267.87;617379;230;67221;-67
2022/04/12 11:46:14;;;;;;;;;;;;;;;25.24;56.24;97262.48;617423;230;66845;-68
2022/04/12 11:48:42;;;;;;;;;;;;;;;25.25;57.30;97261.38;617439;230;65351;-68
2022/04/12 11:51:09;;;;;;;;;;;;;;;25.24;57.72;97252.52;617362;230;64909;-66
2022/04/12 11:53:38;;;;;;;;;;;;;;;25.25;58.10;97258.70;617396;230;64864;-68
2022/04/12 11:56:06;;;;;;;;;;;;;;;25.24;57.96;97259.80;617159;229;62991;-68
2022/04/12 11:58:35;;;;;;;;;;;;;;;25.23;57.27;97247.42;617377;230;64687;-68
2022/04/12 12:01:02;;;;;;;;;;;;;;;25.23;57.99;97258.97;617457;227;65608;-68
2022/04/12 12:03:31;;;;;;;;;;;;;;;25.22;57.14;97251.22;617398;230;65263;-68
2022/04/12 12:05:58;;;;;;;;;;;;;;;25.22;56.60;97257.39;617394;230;67450;-68
2022/04/12 12:08:26;;;;;;;;;;;;;;;25.21;57.37;97244.25;617449;230;67128;-68
2022/04/12 12:10:56;;;;;;;;;;;;;;;25.21;56.76;97244.25;617444;230;65321;-68
2022/04/12 12:13:24;;;;;;;;;;;;;;;25.21;56.11;97247.73;617369;227;65132;-68
2022/04/12 12:15:52;;;;;;;;;;;;;;;25.20;56.87;97239.94;617470;230;67100;-68
2022/04/12 12:18:20;;;;;;;;;;;;;;;25.19;56.72;97244.53;617437;230;65546;-68
2022/04/12 12:20:48;;;;;;;;;;;;;;;25.20;56.58;97237.25;617337;230;67198;-68
2022/04/12 12:23:15;;;;;;;;;;;;;;;25.19;56.67;97232.98;617435;230;64948;-67
2022/04/12 12:25:45;;;;;;;;;;;;;;;25.19;56.67;97235.66;617454;230;65304;-67
2022/04/12 12:28:13;;;;;;;;;;;;;;;25.19;56.30;97235.66;617355;230;67119;-67
2022/04/12 12:30:42;;;;;;;;;;;;;;;25.18;56.48;97240.25;617433;230;67062;-66
2022/04/12 12:33:10;;;;;;;;;;;;;;;25.18;56.07;97234.05;617461;230;65224;-65
2022/04/12 12:35:41;;;;;;;;;;;;;;;25.19;55.97;97228.39;617354;230;67146;-67
2022/04/12 12:38:11;;;;;;;;;;;;;;;25.21;56.22;97226.22;617391;228;65601;-68
2022/04/12 12:40:39;;;;;;;;;;;;;;;25.21;56.59;97228.11;617411;227;65283;-68
2022/04/12 12:43:08;;;;;;;;;;;;;;;25.22;56.03;97241.25;617454;230;67213;-68
2022/04/12 12:45:38;;;;;;;;;;;;;;;25.23;56.08;97231.28;617465;227;66474;-69
2022/04/12 12:48:07;;;;;;;;;;;;;;;25.23;55.68;97232.08;617407;230;65330;-68
2022/04/12 12:50:36;;;;;;;;;;;;;;;25.23;55.89;97234.77;617473;230;64588;-68
2022/04/12 12:53:05;;;;;;;;;;;;;;;25.23;57.55;97232.08;617466;230;67073;-66
2022/04/12 12:55:34;;;;;;;;;;;;;;;25.23;55.83;97225.91;617347;230;62895;-70
2022/04/12 12:58:05;;;;;;;;;;;;;;;25.23;55.83;97224.01;617446;230;67819;-67